Latest Coastal Weather Observations for Marion Reef

IDQ60701

Issued at 8:52 am EST Wednesday 31 August 2016 (issued every 10 minutes, with the page automatically refreshed every 10 minutes)

About coastal observations | Map of coastal stations | Coastal observations for QLD | Marine services | Other Formats
Station Details ID: 200704 Name: MARION REEF Lat: -19.10 Lon: 152.39 Height: 2.0 m
Data from the previous 72 hours. | See also: Recent months for locations in Queensland
Date/Time
EST
Temp
°C
Wind Pressure Rain since
9am
mm
Weather Cloud Vis
km
Sea
Height
m
Swell
Dir  Spd
kts
Gust
kts
hPa Trend Height
m
Period
s
Dir
31/08:30am 22.8 ESE 16 20 1021.8 - - - - - - - - -
31/08:00am 23.4 ESE 17 20 1021.6 - - - - - - - - -
31/07:30am 23.4 ESE 18 22 1021.5 - - - - - - - - -
31/07:00am 23.6 SE 18 22 1021.2 - - - - - - - - -
31/06:30am 23.6 ESE 19 24 1021.1 - - - - - - - - -
31/06:00am 23.6 ESE 19 22 1020.9 - - - - - - - - -
31/05:30am 23.3 SE 18 22 1020.8 - - - - - - - - -
31/05:00am 23.5 ESE 19 21 1020.4 - - - - - - - - -
31/04:30am 23.4 SE 19 22 1020.2 - - - - - - - - -
31/04:00am 23.3 SE 18 21 1019.9 - - - - - - - - -
31/03:30am 23.4 ESE 18 20 1019.8 - - - - - - - - -
31/03:00am 23.4 ESE 20 23 1019.7 - - - - - - - - -
31/02:30am 23.4 ESE 21 25 1020.1 - - - - - - - - -
31/02:00am 23.2 ESE 17 23 1020.3 - - - - - - - - -
31/01:30am 23.5 ESE 19 23 1020.6 - - - - - - - - -
31/01:00am 23.3 ESE 21 23 1020.8 - - - - - - - - -
31/12:30am 22.9 E 15 21 1021.3 - - - - - - - - -
31/12:00am 23.1 ESE 19 22 1021.8 - - - - - - - - -
 
Date/Time
EST
Temp
°C
Wind Pressure Rain since
9am
mm
Weather Cloud Vis
km
Sea
Height
m
Swell
Dir  Spd
kts
Gust
kts
hPa Trend Height
m
Period
s
Dir
30/11:30pm 23.6 E 21 24 1022.0 - - - - - - - - -
30/11:00pm 23.5 ESE 20 23 1021.9 - - - - - - - - -
30/10:30pm 23.5 ESE 22 26 1021.9 - - - - - - - - -
30/10:00pm 23.5 ESE 19 23 1021.9 - - - - - - - - -
30/09:30pm 23.6 ESE 22 26 1021.9 - - - - - - - - -
30/09:00pm 23.6 E 20 24 1021.8 - - - - - - - - -
30/08:30pm 23.6 E 21 25 1021.8 - - - - - - - - -
30/08:00pm 23.6 ESE 23 27 1021.5 - - - - - - - - -
30/07:30pm 23.5 ESE 19 22 1021.2 - - - - - - - - -
30/07:00pm 23.6 ESE 20 24 1020.9 - - - - - - - - -
30/06:30pm 23.6 ESE 21 25 1020.4 - - - - - - - - -
30/06:00pm 23.5 ESE 21 25 1019.9 - - - - - - - - -
30/05:30pm 23.5 ESE 20 24 1020.0 - - - - - - - - -
30/05:00pm 23.2 SE 20 25 1019.9 - - - - - - - - -
30/04:30pm 23.4 SE 21 24 1019.9 - - - - - - - - -
30/04:00pm 23.3 ESE 20 24 1019.6 - - - - - - - - -
30/03:30pm 23.4 ESE 21 26 1019.5 - - - - - - - - -
30/03:00pm 23.5 ESE 21 25 1019.3 - - - - - - - - -
30/02:30pm 23.6 ESE 20 23 1019.5 - - - - - - - - -
30/02:00pm 23.4 ESE 21 25 1019.4 - - - - - - - - -
30/01:30pm 23.6 ESE 19 22 1019.9 - - - - - - - - -
30/01:00pm 23.6 ESE 21 26 1020.3 - - - - - - - - -
30/12:30pm 23.6 ESE 21 25 1020.9 - - - - - - - - -
30/12:00pm 23.7 ESE 21 25 1021.1 - - - - - - - - -
30/11:30am 23.5 ESE 19 23 1021.4 - - - - - - - - -
30/11:00am 23.7 E 18 21 1021.9 - - - - - - - - -
30/10:30am 23.3 ESE 20 23 1022.3 - - - - - - - - -
30/10:00am 23.2 E 20 23 1022.4 - - - - - - - - -
30/09:30am 23.5 ESE 19 22 1022.6 - - - - - - - - -
30/09:00am 22.9 ESE 18 21 1022.5 - - - - - - - - -
30/08:30am 23.3 E 22 26 1022.3 - - - - - - - - -
30/08:00am 23.2 ESE 21 24 1021.9 - - - - - - - - -
30/07:30am 23.3 ESE 20 26 1021.8 - - - - - - - - -
30/07:00am 23.0 ESE 23 26 1021.3 - - - - - - - - -
30/06:30am 23.2 ESE 22 25 1021.0 - - - - - - - - -
30/06:00am 23.1 ESE 18 21 1020.6 - - - - - - - - -
30/05:30am 23.1 ESE 21 25 1020.3 - - - - - - - - -
30/05:00am 22.9 E 21 27 1019.8 - - - - - - - - -
30/04:30am 23.3 E 21 25 1019.7 - - - - - - - - -
30/04:00am 22.9 E 21 27 1019.4 - - - - - - - - -
30/03:30am 23.2 E 25 29 1019.0 - - - - - - - - -
30/03:00am 22.8 ESE 25 27 1018.8 - - - - - - - - -
30/02:30am 22.8 E 25 30 1019.0 - - - - - - - - -
30/02:00am 22.8 E 23 26 1018.9 - - - - - - - - -
30/01:30am 22.9 E 23 27 1019.4 - - - - - - - - -
30/01:00am 23.1 E 26 29 1019.5 - - - - - - - - -
30/12:30am 23.3 E 26 30 1019.8 - - - - - - - - -
30/12:00am 23.1 ESE 23 27 1019.9 - - - - - - - - -
 
Date/Time
EST
Temp
°C
Wind Pressure Rain since
9am
mm
Weather Cloud Vis
km
Sea
Height
m
Swell
Dir  Spd
kts
Gust
kts
hPa Trend Height
m
Period
s
Dir
29/11:30pm 23.1 ESE 24 28 1020.4 - - - - - - - - -
29/11:00pm 23.1 E 24 30 1020.4 - - - - - - - - -
29/10:30pm 23.2 ESE 22 27 1020.6 - - - - - - - - -
29/10:00pm 23.2 ESE 22 27 1020.6 - - - - - - - - -
29/09:30pm 23.3 ESE 22 28 1020.9 - - - - - - - - -
29/09:00pm 23.1 ESE 24 28 1020.7 - - - - - - - - -
29/08:30pm 23.0 ESE 22 27 1020.8 - - - - - - - - -
29/08:00pm 23.1 ESE 21 25 1020.6 - - - - - - - - -
29/07:30pm 23.0 ESE 21 25 1020.6 - - - - - - - - -
29/07:00pm 23.1 ESE 21 27 1020.3 - - - - - - - - -
29/06:30pm 23.0 ESE 22 26 1020.0 - - - - - - - - -
29/06:00pm 23.0 ESE 22 27 1019.6 - - - - - - - - -
29/05:30pm 22.9 ESE 24 28 1019.6 - - - - - - - - -
29/05:00pm 22.9 ESE 22 25 1019.4 - - - - - - - - -
29/04:30pm 23.3 SE 20 23 1019.4 - - - - - - - - -
29/04:00pm 23.1 SE 21 26 1019.2 - - - - - - - - -
29/03:30pm 23.1 SE 20 23 1019.1 - - - - - - - - -
29/03:00pm 23.3 ESE 19 22 1018.9 - - - - - - - - -
29/02:30pm 23.1 SE 18 22 1019.0 - - - - - - - - -
29/02:00pm 23.2 ESE 18 21 1019.0 - - - - - - - - -
29/01:30pm 23.3 ESE 19 22 1019.3 - - - - - - - - -
29/01:00pm 23.1 SE 20 24 1019.4 - - - - - - - - -
29/12:30pm 23.2 SE 18 23 1019.9 - - - - - - - - -
29/12:00pm 23.3 ESE 16 20 1020.1 - - - - - - - - -
29/11:30am 22.8 SE 17 20 1020.4 - - - - - - - - -
29/11:00am 23.1 ESE 17 21 1020.8 - - - - - - - - -
29/10:30am 23.1 ESE 17 21 1021.3 - - - - - - - - -
29/10:00am 23.1 ESE 18 22 1021.4 - - - - - - - - -
29/09:30am 23.0 ESE 16 19 1021.7 - - - - - - - - -
29/09:00am 23.0 ESE 20 24 1021.5 - - - - - - - - -
29/08:30am 22.7 ESE 18 21 1021.6 - - - - - - - - -
29/08:00am 22.7 E 19 22 1021.4 - - - - - - - - -
29/07:30am 22.7 ESE 19 24 1020.9 - - - - - - - - -
29/07:00am 22.7 ESE 19 22 1020.5 - - - - - - - - -
29/06:30am 22.2 ESE 18 21 1020.2 - - - - - - - - -
29/06:00am 22.3 SE 18 21 1019.5 - - - - - - - - -
29/05:30am 22.1 SE 19 22 1019.5 - - - - - - - - -
29/05:00am 22.2 E 22 27 1019.2 - - - - - - - - -
29/04:30am 22.4 E 20 24 1019.1 - - - - - - - - -
29/04:00am 22.2 E 18 21 1018.8 - - - - - - - - -
29/03:30am 22.1 ESE 18 23 1018.4 - - - - - - - - -
29/03:00am 22.0 ESE 20 24 1018.5 - - - - - - - - -
29/02:30am 22.0 ESE 21 25 1018.9 - - - - - - - - -
29/02:00am 22.1 ESE 20 24 1019.1 - - - - - - - - -
29/01:30am 22.0 ESE 19 22 1019.4 - - - - - - - - -
29/01:00am 22.0 SE 19 23 1019.3 - - - - - - - - -
29/12:30am 21.9 ESE 20 25 1019.7 - - - - - - - - -
29/12:00am 22.0 ESE 18 23 1019.8 - - - - - - - - -
 
Date/Time
EST
Temp
°C
Wind Pressure Rain since
9am
mm
Weather Cloud Vis
km
Sea
Height
m
Swell
Dir  Spd
kts
Gust
kts
hPa Trend Height
m
Period
s
Dir
28/11:30pm 21.9 ESE 19 23 1019.8 - - - - - - - - -
28/11:00pm 22.1 ESE 19 22 1020.0 - - - - - - - - -
28/10:30pm 22.0 ESE 18 22 1020.1 - - - - - - - - -
28/10:00pm 21.8 ESE 20 24 1020.0 - - - - - - - - -
28/09:30pm 22.0 ESE 19 22 1020.0 - - - - - - - - -
28/09:00pm 22.2 ESE 19 24 1019.9 - - - - - - - - -
28/08:30pm 22.3 ESE 21 25 1019.6 - - - - - - - - -
28/08:00pm 22.2 ESE 19 23 1019.4 - - - - - - - - -
28/07:30pm 22.6 ESE 20 23 1019.3 - - - - - - - - -
28/07:00pm 22.2 ESE 20 23 1019.1 - - - - - - - - -
28/06:30pm 22.3 SE 20 25 1018.7 - - - - - - - - -
28/06:00pm 22.8 SE 20 25 1018.6 - - - - - - - - -
28/05:30pm 22.3 SE 19 23 1018.5 - - - - - - - - -
28/05:00pm 22.4 SE 18 22 1018.2 - - - - - - - - -
28/04:30pm 22.3 SE 18 22 1018.3 - - - - - - - - -
28/04:00pm 22.1 SE 18 22 1018.2 - - - - - - - - -
28/03:30pm 22.1 SE 18 22 1018.0 - - - - - - - - -
28/03:00pm 22.0 SSE 18 22 1018.0 - - - - - - - - -
28/02:30pm 21.9 SE 16 20 1018.3 - - - - - - - - -
28/02:00pm 21.7 SE 16 19 1018.5 - - - - - - - - -
28/01:30pm 21.8 SSE 17 20 1018.9 - - - - - - - - -
28/01:00pm 21.7 SE 18 21 1019.2 - - - - - - - - -
28/12:30pm 21.7 SE 18 21 1019.9 - - - - - - - - -
28/12:00pm 21.7 SE 16 22 1020.2 - - - - - - - - -
28/11:30am 21.3 SE 16 19 1020.6 - - - - - - - - -
28/11:00am 21.0 SE 17 22 1020.7 - - - - - - - - -
28/10:30am 21.2 SE 17 21 1021.2 - - - - - - - - -
28/10:00am 21.1 SE 14 19 1021.3 - - - - - - - - -
28/09:30am 20.9 SE 17 21 1021.6 - - - - - - - - -
28/09:00am 20.8 SSE 17 21 1021.4 - - - - - - - - -

Other Formats:

Comma delimited format used in spreadsheet applications
http://www.bom.gov.au/fwo/IDQ60701/IDQ60701.94298.axf

JavaScript Object Notation format (JSON) in row-major order
http://www.bom.gov.au/fwo/IDQ60701/IDQ60701.94298.json